Time;durP1;ratioP1;P1;durP2;ratioP2;P2;SDS_P1;SDS_P2;PMS_P1;PMS_P2;Temp;Humidity;BMP_temperature;BMP_pressure;BME280_temperature;BME280_humidity;BME280_pressure;Samples;Min_cycle;Max_cycle;Signal;HPM_P1;HPM_P2
2021/04/30 03:02:37;;;;;;;9.05;4.90;;;;;;;9.35;100.00;100537.77;1719762;81;21638;-73
2021/04/30 03:05:27;;;;;;;10.50;4.97;;;;;;;9.73;100.00;100540.54;1698115;83;21603;-72
2021/04/30 03:07:56;;;;;;;9.13;4.67;;;;;;;9.97;100.00;100540.42;1671064;84;22144;-71
2021/04/30 03:10:24;;;;;;;7.77;4.73;;;;;;;10.22;100.00;100539.76;1686813;82;21290;-70
2021/04/30 03:12:53;;;;;;;10.07;5.00;;;;;;;10.41;100.00;100533.30;1699898;82;21448;-69
2021/04/30 03:15:22;;;;;;;7.63;4.17;;;;;;;10.66;100.00;100537.02;1704770;83;21508;-69
2021/04/30 03:17:51;;;;;;;7.70;5.10;;;;;;;11.13;100.00;100537.20;1705410;83;21329;-73
2021/04/30 03:20:20;;;;;;;6.03;3.60;;;;;;;11.69;100.00;100538.84;1697570;83;21846;-74
2021/04/30 03:22:48;;;;;;;7.03;3.80;;;;;;;12.23;100.00;100528.47;1699213;83;21477;-70
2021/04/30 03:25:17;;;;;;;6.20;3.50;;;;;;;12.73;100.00;100528.81;1704858;83;21655;-70
2021/04/30 03:27:45;;;;;;;7.87;4.20;;;;;;;13.20;100.00;100519.42;1704939;83;21849;-69
2021/04/30 03:30:16;;;;;;;5.50;3.57;;;;;;;13.61;100.00;100517.33;1693069;83;21877;-70
2021/04/30 03:32:44;;;;;;;5.30;3.40;;;;;;;13.91;95.67;100514.39;1703210;83;21930;-71
2021/04/30 03:35:17;;;;;;;7.57;4.10;;;;;;;14.22;90.78;100517.77;1692987;83;21219;-69
2021/04/30 03:37:46;;;;;;;5.47;3.67;;;;;;;14.53;86.22;100519.82;1689940;82;21515;-73
2021/04/30 03:40:15;;;;;;;8.50;4.00;;;;;;;14.89;79.65;100521.19;1695296;82;21164;-71
2021/04/30 03:42:43;;;;;;;9.07;4.60;;;;;;;15.29;75.61;100518.77;1695421;82;21572;-69
2021/04/30 03:45:13;;;;;;;5.47;3.40;;;;;;;15.66;73.37;100517.74;1669176;84;21211;-69
2021/04/30 03:47:41;;;;;;;5.33;3.90;;;;;;;16.16;67.96;100517.84;1661529;84;21152;-70
2021/04/30 03:50:10;;;;;;;6.53;3.97;;;;;;;16.63;61.03;100513.03;1694083;83;21203;-71
2021/04/30 03:52:38;;;;;;;7.77;4.00;;;;;;;17.00;57.32;100508.63;1687981;83;21710;-69
2021/04/30 03:55:08;;;;;;;6.80;4.20;;;;;;;17.38;54.74;100502.83;1678835;83;21193;-71
2021/04/30 03:57:35;;;;;;;6.57;4.20;;;;;;;17.73;53.53;100501.69;1722182;80;22290;-70
2021/04/30 04:00:07;;;;;;;8.63;4.00;;;;;;;18.17;51.18;100499.13;1728937;80;21109;-70
2021/04/30 04:02:42;;;;;;;7.13;4.67;;;;;;;18.52;48.69;100499.66;1730591;80;21204;-70
2021/04/30 04:05:11;;;;;;;7.13;4.17;;;;;;;18.62;47.20;100503.06;1725787;80;21126;-71
2021/04/30 04:07:40;;;;;;;6.40;4.63;;;;;;;18.65;46.07;100498.66;1718759;80;21618;-72
2021/04/30 04:10:09;;;;;;;6.60;4.37;;;;;;;18.65;45.94;100492.85;1709991;83;21846;-72
2021/04/30 04:12:38;;;;;;;5.77;3.70;;;;;;;18.67;46.19;100495.25;1711095;83;21161;-69
2021/04/30 04:15:07;;;;;;;5.20;3.87;;;;;;;18.64;45.66;100493.89;1710861;81;21203;-71
2021/04/30 04:17:35;;;;;;;8.33;3.90;;;;;;;18.62;45.67;100493.30;1698153;83;20938;-76
2021/04/30 04:20:05;;;;;;;6.03;3.60;;;;;;;18.73;45.83;100494.37;1702885;83;21152;-69
2021/04/30 04:22:33;;;;;;;5.47;3.77;;;;;;;18.90;45.69;100493.97;1712881;83;21475;-70
2021/04/30 04:25:03;;;;;;;5.70;3.60;;;;;;;19.05;45.51;100486.84;1710376;81;21460;-70
2021/04/30 04:27:31;;;;;;;6.60;3.53;;;;;;;19.22;44.88;100486.14;1708046;83;21020;-69
2021/04/30 04:30:01;;;;;;;6.73;3.63;;;;;;;19.33;44.41;100496.67;1699499;83;21188;-74
2021/04/30 04:32:29;;;;;;;6.03;4.30;;;;;;;19.49;44.80;100492.47;1710677;83;22525;-71
2021/04/30 04:34:57;;;;;;;6.70;4.60;;;;;;;19.91;44.11;100496.16;1714211;81;21510;-69
2021/04/30 04:37:27;;;;;;;8.20;4.43;;;;;;;20.42;42.61;100495.66;1717533;81;21528;-69
2021/04/30 04:39:55;;;;;;;7.10;3.90;;;;;;;20.71;41.55;100488.94;1716505;81;21146;-76
2021/04/30 04:42:24;;;;;;;5.53;3.67;;;;;;;20.97;41.06;100488.22;1703868;82;21456;-72
2021/04/30 04:44:52;;;;;;;10.20;4.47;;;;;;;21.43;40.14;100485.34;1716645;81;21499;-69
2021/04/30 04:47:21;;;;;;;5.70;3.93;;;;;;;21.81;39.08;100485.18;1716742;83;21374;-70
2021/04/30 04:49:51;;;;;;;5.95;3.80;;;;;;;22.06;37.97;100482.48;1716522;81;21161;-73
2021/04/30 04:52:20;;;;;;;5.50;4.27;;;;;;;22.03;37.78;100487.76;1717030;81;21453;-71
2021/04/30 04:54:48;;;;;;;7.03;4.27;;;;;;;21.97;37.87;100475.52;1717510;81;21457;-69
2021/04/30 04:57:17;;;;;;;7.30;4.13;;;;;;;21.83;37.58;100479.64;1713885;82;21134;-70
2021/04/30 04:59:46;;;;;;;8.83;4.07;;;;;;;21.61;38.22;100469.08;1724406;82;22204;-73
2021/04/30 05:02:14;;;;;;;6.23;4.07;;;;;;;21.40;38.65;100470.72;1705958;81;22044;-71
2021/04/30 05:04:45;;;;;;;8.00;4.53;;;;;;;21.05;39.46;100473.74;1700403;81;21434;-70
2021/04/30 05:07:14;;;;;;;5.75;4.20;;;;;;;20.84;40.74;100472.17;1718256;82;21120;-72
2021/04/30 05:09:43;;;;;;;8.27;4.80;;;;;;;21.06;40.80;100473.52;1721440;83;21253;-71
2021/04/30 05:12:11;;;;;;;9.50;5.03;;;;;;;21.21;40.22;100470.73;1704830;83;22116;-71
2021/04/30 05:14:39;;;;;;;13.63;5.27;;;;;;;21.31;40.28;100478.81;1719165;83;21465;-70
2021/04/30 05:17:08;;;;;;;6.60;3.40;;;;;;;21.51;40.01;100477.73;1709023;81;21158;-70
2021/04/30 05:19:36;;;;;;;8.37;4.17;;;;;;;21.63;40.07;100481.58;1725181;81;21154;-74
2021/04/30 05:22:10;;;;;;;7.27;4.10;;;;;;;21.73;40.47;100482.19;1697014;81;21209;-74
2021/04/30 05:24:38;;;;;;;8.70;3.50;;;;;;;22.11;40.00;100478.00;1723868;81;22214;-70
2021/04/30 05:27:10;;;;;;;9.00;4.70;;;;;;;22.31;38.86;100479.23;1690508;82;21087;-70
2021/04/30 05:29:43;;;;;;;7.57;3.80;;;;;;;22.16;39.20;100481.77;1703523;81;21212;-72
2021/04/30 05:32:11;;;;;;;7.73;4.00;;;;;;;22.07;40.05;100482.22;1701956;82;21158;-70
2021/04/30 05:34:41;;;;;;;4.97;3.70;;;;;;;22.12;39.73;100478.80;1720436;81;21561;-71
2021/04/30 05:37:09;;;;;;;5.13;3.53;;;;;;;22.26;40.01;100472.56;1716852;81;21779;-73
2021/04/30 05:39:37;;;;;;;5.00;3.73;;;;;;;22.24;39.36;100469.38;1701300;81;21186;-75
2021/04/30 05:42:06;;;;;;;6.10;3.50;;;;;;;22.08;39.62;100467.87;1706976;83;21957;-72
2021/04/30 05:44:36;;;;;;;5.47;3.50;;;;;;;21.86;39.74;100467.20;1724318;82;21193;-75
2021/04/30 05:47:04;;;;;;;5.50;4.13;;;;;;;21.31;40.88;100469.53;1722383;83;21123;-70
2021/04/30 05:49:33;;;;;;;6.40;4.53;;;;;;;20.95;43.09;100474.44;1723717;81;23487;-70
2021/04/30 05:52:01;;;;;;;6.17;4.00;;;;;;;21.03;43.18;100475.33;1707766;81;21984;-74
2021/04/30 05:54:31;;;;;;;6.77;3.73;;;;;;;21.22;43.15;100475.02;1712806;83;21478;-69
2021/04/30 05:56:59;;;;;;;5.80;3.80;;;;;;;21.43;42.90;100471.55;1711873;81;21677;-69
2021/04/30 05:59:28;;;;;;;8.83;3.53;;;;;;;21.73;42.64;100466.27;1703148;81;21066;-71
2021/04/30 06:01:56;;;;;;;4.87;3.23;;;;;;;;;;1717911;81;21503;-74
2021/04/30 06:04:26;;;;;;;4.10;3.17;;;;;;;22.16;42.64;100455.23;1716277;81;21229;-71
2021/04/30 06:06:54;;;;;;;5.67;3.30;;;;;;;22.45;41.82;100457.81;1699040;81;22520;-71
2021/04/30 06:09:23;;;;;;;6.40;3.10;;;;;;;22.76;40.74;100461.42;1722660;83;21181;-71
2021/04/30 06:11:53;;;;;;;5.13;3.43;;;;;;;23.03;40.46;100460.00;1712976;81;21123;-74
2021/04/30 06:14:22;;;;;;;5.00;3.50;;;;;;;23.17;40.46;100453.64;1695625;82;21475;-71
2021/04/30 06:16:50;;;;;;;4.67;3.40;;;;;;;23.18;39.98;100450.45;1692889;81;21175;-74
2021/04/30 06:19:19;;;;;;;4.27;2.83;;;;;;;23.11;39.54;100460.53;1723773;81;21220;-70
2021/04/30 06:21:47;;;;;;;3.53;2.30;;;;;;;22.81;38.99;100465.98;1719629;82;21651;-73
2021/04/30 06:24:15;;;;;;;4.37;2.97;;;;;;;22.30;39.66;100453.73;1713920;82;21086;-71
2021/04/30 06:26:44;;;;;;;3.80;2.90;;;;;;;21.86;40.71;100457.91;1721680;81;21202;-72
2021/04/30 06:29:12;;;;;;;4.30;3.00;;;;;;;21.46;41.89;100460.45;1691989;81;21184;-69
2021/04/30 06:31:40;;;;;;;6.20;2.20;;;;;;;21.31;42.82;100443.81;1714060;81;21534;-69
2021/04/30 06:34:09;;;;;;;4.23;2.30;;;;;;;21.45;43.05;100448.77;1720190;82;21696;-68
2021/04/30 06:36:38;;;;;;;5.90;2.50;;;;;;;21.33;42.58;100452.37;1723823;81;21161;-72
2021/04/30 06:39:07;;;;;;;4.10;2.50;;;;;;;21.05;43.55;100449.89;1718086;81;21595;-71
2021/04/30 06:41:35;;;;;;;4.07;2.27;;;;;;;20.96;44.08;100450.86;1708399;81;21245;-72
2021/04/30 06:44:04;;;;;;;4.93;2.47;;;;;;;20.99;43.68;100443.74;1705602;81;21189;-70
2021/04/30 06:46:34;;;;;;;4.37;2.52;;;;;;;20.96;43.53;100445.55;1710112;83;21198;-70
2021/04/30 06:49:03;;;;;;;3.20;2.20;;;;;;;20.78;43.69;100444.00;1724129;82;22032;-72
2021/04/30 06:51:32;;;;;;;5.63;2.43;;;;;;;20.65;44.93;100441.20;1718985;81;21516;-68
2021/04/30 06:54:02;;;;;;;3.23;2.10;;;;;;;20.73;45.91;100447.92;1718876;81;21576;-70
2021/04/30 06:56:31;;;;;;;3.90;2.30;;;;;;;20.82;45.24;100452.27;1713474;81;21162;-71
2021/04/30 06:59:00;;;;;;;4.20;2.53;;;;;;;21.01;46.00;100448.25;1711136;82;21165;-77
2021/04/30 07:01:28;;;;;;;5.07;2.23;;;;;;;21.16;44.56;100450.28;1722313;81;21737;-77
2021/04/30 07:03:56;;;;;;;3.90;2.10;;;;;;;21.27;44.84;100441.92;1706515;81;21402;-70
2021/04/30 07:06:25;;;;;;;5.30;2.47;;;;;;;21.62;44.85;100444.94;1719945;81;21525;-71
2021/04/30 07:08:54;;;;;;;4.00;2.20;;;;;;;22.20;43.94;100440.38;1723854;81;21279;-69
2021/04/30 07:11:22;;;;;;;2.90;1.63;;;;;;;22.42;42.32;100435.74;1720336;81;21221;-74
2021/04/30 07:13:50;;;;;;;3.07;1.90;;;;;;;22.24;42.13;100436.98;1724500;81;21479;-70
2021/04/30 07:16:19;;;;;;;3.97;2.20;;;;;;;21.90;42.46;100424.50;1714584;81;21302;-71
2021/04/30 07:18:48;;;;;;;2.60;1.90;;;;;;;21.84;43.79;100434.79;1720497;81;21121;-70
2021/04/30 07:21:16;;;;;;;4.10;1.90;;;;;;;21.79;44.23;100437.41;1709659;81;21080;-74
2021/04/30 07:23:44;;;;;;;4.90;2.20;;;;;;;21.80;43.80;100436.34;1720783;81;21946;-72
2021/04/30 07:26:12;;;;;;;4.73;2.50;;;;;;;21.86;43.00;100435.35;1721376;81;21424;-71
2021/04/30 07:28:41;;;;;;;3.30;2.13;;;;;;;21.82;43.85;100435.05;1717258;81;21369;-69
2021/04/30 07:31:09;;;;;;;3.80;2.33;;;;;;;21.82;43.73;100438.20;1724674;83;21941;-75
2021/04/30 07:33:43;;;;;;;3.20;2.10;;;;;;;21.77;42.93;100432.88;1713508;81;21586;-68
2021/04/30 07:36:09;;;;;;;4.77;2.40;;;;;;;21.58;44.17;100416.52;1724467;81;21063;-69
2021/04/30 07:38:38;;;;;;;3.13;2.17;;;;;;;21.41;44.88;100421.16;1718816;82;21174;-68
2021/04/30 07:41:07;;;;;;;3.23;2.20;;;;;;;21.22;46.07;100423.32;1721281;81;21319;-80
2021/04/30 07:43:35;;;;;;;5.30;2.37;;;;;;;21.07;46.56;100430.05;1724746;81;21189;-71
2021/04/30 07:46:04;;;;;;;4.00;2.13;;;;;;;21.00;47.58;100420.16;1720533;81;21078;-71
2021/04/30 07:48:33;;;;;;;3.20;2.00;;;;;;;21.06;48.73;100416.53;1718769;81;21111;-71
2021/04/30 07:51:02;;;;;;;4.03;2.20;;;;;;;21.23;46.12;100415.63;1701856;81;21167;-73
2021/04/30 07:53:32;;;;;;;5.08;2.10;;;;;;;21.24;44.77;100408.74;1714983;81;21407;-77
2021/04/30 07:56:03;;;;;;;3.77;1.97;;;;;;;21.25;45.25;100400.26;1715835;82;21265;-70
2021/04/30 07:58:31;;;;;;;4.47;2.33;;;;;;;21.61;45.05;100406.74;1735212;82;21150;-73
2021/04/30 08:00:59;;;;;;;4.23;2.40;;;;;;;21.79;44.93;100405.57;1737008;81;21130;-76
2021/04/30 08:03:28;;;;;;;3.77;1.97;;;;;;;22.11;44.23;100395.70;1730539;81;21467;-72
2021/04/30 08:05:56;;;;;;;4.03;2.13;;;;;;;22.46;43.13;100389.02;1726836;81;21914;-71
2021/04/30 08:08:24;;;;;;;2.90;1.80;;;;;;;22.65;42.31;100397.33;1723543;82;21535;-72
2021/04/30 08:10:53;;;;;;;3.60;2.10;;;;;;;23.08;41.67;100386.63;1726214;81;20998;-76
2021/04/30 08:13:21;;;;;;;5.40;2.33;;;;;;;23.75;40.52;100381.12;1710764;83;21976;-71
2021/04/30 08:15:49;;;;;;;4.93;2.60;;;;;;;24.44;38.21;100374.34;1742306;82;21126;-72
2021/04/30 08:18:18;;;;;;;5.83;3.93;;;;;;;24.55;37.71;100371.62;1720325;83;21365;-70
2021/04/30 08:20:46;;;;;;;4.70;3.40;;;;;;;24.53;37.21;100376.44;1735870;82;21255;-72
2021/04/30 08:23:14;;;;;;;5.07;2.73;;;;;;;24.05;37.58;100371.47;1708855;83;21266;-73
2021/04/30 08:25:44;;;;;;;3.43;2.40;;;;;;;23.80;39.16;100372.33;1721299;83;21216;-74
2021/04/30 08:28:12;;;;;;;4.33;2.23;;;;;;;23.75;39.47;100370.98;1733030;81;21185;-70
2021/04/30 08:30:40;;;;;;;3.60;2.00;;;;;;;23.75;39.79;100359.83;1725164;81;21546;-72
2021/04/30 08:33:09;;;;;;;3.60;2.20;;;;;;;23.80;39.61;100356.36;1738292;82;21184;-73
2021/04/30 08:35:38;;;;;;;3.63;2.27;;;;;;;23.89;39.37;100356.06;1731236;82;21478;-72
2021/04/30 08:38:06;;;;;;;4.77;2.30;;;;;;;24.22;40.17;100351.20;1739770;81;22076;-71
2021/04/30 08:40:34;;;;;;;5.83;2.80;;;;;;;24.96;38.43;100351.70;1731976;81;21067;-72
2021/04/30 08:43:03;;;;;;;4.70;2.27;;;;;;;25.30;36.95;100348.27;1724138;81;21390;-72
2021/04/30 08:45:31;;;;;;;3.67;2.60;;;;;;;24.96;36.59;100347.70;1730653;81;21439;-72
2021/04/30 08:48:01;;;;;;;3.87;2.47;;;;;;;24.47;37.84;100355.66;1726426;81;21114;-72
2021/04/30 08:50:29;;;;;;;4.10;2.83;;;;;;;24.07;38.79;100341.93;1734640;81;21510;-71
2021/04/30 08:52:58;;;;;;;4.23;2.60;;;;;;;23.73;39.59;100329.22;1710904;83;21154;-70
2021/04/30 08:55:28;;;;;;;5.63;2.33;;;;;;;23.42;40.78;100331.08;1721570;83;21483;-71
2021/04/30 08:57:57;;;;;;;5.13;2.80;;;;;;;22.79;42.61;100339.98;1737169;81;21157;-69
2021/04/30 09:00:28;;;;;;;4.70;2.60;;;;;;;22.34;44.97;100328.67;1723441;81;21013;-71
2021/04/30 09:02:57;;;;;;;4.63;2.90;;;;;;;22.27;47.86;100324.13;1690672;82;21198;-72
2021/04/30 09:05:30;;;;;;;4.47;2.57;;;;;;;22.34;48.04;100322.83;1734144;82;21514;-76
2021/04/30 09:08:00;;;;;;;4.30;2.70;;;;;;;22.45;46.83;100309.06;1728090;82;22212;-72
2021/04/30 09:10:31;;;;;;;4.50;2.73;;;;;;;22.45;46.33;100306.41;1721981;83;21557;-70
2021/04/30 09:13:11;;;;;;;5.87;2.47;;;;;;;22.21;48.47;100303.93;1709135;82;21156;-69
2021/04/30 09:15:41;;;;;;;5.67;2.40;;;;;;;22.09;49.76;100296.15;1730651;81;21211;-74
2021/04/30 09:18:26;;;;;;;3.87;2.30;;;;;;;22.10;50.06;100297.73;1736271;82;21138;-71
2021/04/30 09:20:55;;;;;;;4.03;2.50;;;;;;;22.31;48.31;100284.04;1736901;81;21560;-73
2021/04/30 09:23:36;;;;;;;5.10;2.50;;;;;;;22.56;47.87;100278.81;1722078;82;21216;-71
2021/04/30 09:26:21;;;;;;;3.40;2.50;;;;;;;22.91;46.73;100287.95;1722500;81;21061;-73
2021/04/30 09:29:08;;;;;;;4.23;2.60;;;;;;;23.02;45.80;100278.92;1731571;82;21197;-72
2021/04/30 09:31:42;;;;;;;6.63;2.33;;;;;;;23.34;44.56;100275.22;1699426;82;21170;-72
2021/04/30 09:34:25;;;;;;;5.07;2.47;;;;;;;23.69;43.72;100273.60;1736751;81;21230;-72
2021/04/30 09:37:12;;;;;;;5.70;2.60;;;;;;;24.00;42.54;100275.10;1737308;82;21527;-73
2021/04/30 09:40:00;;;;;;;5.83;2.33;;;;;;;24.25;41.75;100273.42;1724947;81;21567;-72
2021/04/30 09:42:31;;;;;;;4.37;2.10;;;;;;;24.71;40.51;100259.88;1738151;82;21193;-74
2021/04/30 09:45:03;;;;;;;3.43;2.20;;;;;;;25.10;40.04;100264.41;1738555;82;21130;-73
2021/04/30 09:47:31;;;;;;;;;;;;;;;25.24;38.77;100261.36;1742067;82;21207;-74
2021/04/30 09:50:09;;;;;;;4.60;2.50;;;;;;;25.04;38.70;100257.48;1717859;83;20218;-71
2021/04/30 09:52:37;;;;;;;3.37;2.40;;;;;;;24.90;39.06;100256.02;1731141;81;21125;-71
2021/04/30 09:55:08;;;;;;;4.43;2.50;;;;;;;25.14;39.33;100258.23;1686212;82;21504;-71
2021/04/30 09:57:36;;;;;;;4.03;2.35;;;;;;;25.53;38.30;100255.20;1735449;81;21181;-72
2021/04/30 10:00:11;;;;;;;5.00;2.70;;;;;;;25.79;37.94;100245.88;1722785;81;21232;-70
2021/04/30 10:02:46;;;;;;;4.80;3.00;;;;;;;26.24;36.86;100245.07;1723966;82;21209;-73
2021/04/30 10:05:22;;;;;;;3.77;2.57;;;;;;;26.38;36.52;100240.61;1719945;82;21679;-75
2021/04/30 10:07:51;;;;;;;3.73;2.33;;;;;;;26.09;36.16;100253.28;1721646;83;21064;-72
2021/04/30 10:10:22;;;;;;;6.27;2.93;;;;;;;25.27;37.61;100238.64;1721469;81;21212;-71
2021/04/30 10:12:57;;;;;;;4.60;2.60;;;;;;;24.64;38.91;100235.39;1718800;81;21620;-71
2021/04/30 10:15:25;;;;;;;6.37;2.33;;;;;;;24.17;40.21;100234.84;1722081;82;21623;-70
2021/04/30 10:17:56;;;;;;;8.07;2.87;;;;;;;23.91;41.45;100242.67;1722854;81;21070;-76
2021/04/30 10:20:24;;;;;;;4.23;2.53;;;;;;;23.66;43.05;100239.50;1721715;81;21263;-72
2021/04/30 10:22:54;;;;;;;6.17;3.23;;;;;;;23.76;42.52;100237.66;1717269;81;21196;-72
2021/04/30 10:25:22;;;;;;;5.40;2.80;;;;;;;24.04;43.03;100234.88;1723584;81;21393;-70
2021/04/30 10:27:53;;;;;;;4.40;2.57;;;;;;;24.25;41.99;100233.47;1720414;81;21166;-71
2021/04/30 10:30:30;;;;;;;7.47;2.95;;;;;;;24.30;42.00;100221.45;1719233;81;21270;-71
2021/04/30 10:33:18;;;;;;;4.53;2.70;;;;;;;24.27;41.59;100217.98;1722245;81;21660;-71
2021/04/30 10:36:08;;;;;;;4.23;2.30;;;;;;;24.37;41.92;100219.27;1724810;81;21153;-70
2021/04/30 10:38:49;;;;;;;4.70;3.00;;;;;;;24.64;41.34;100208.74;1719792;81;21581;-70
2021/04/30 10:41:39;;;;;;;4.62;2.60;;;;;;;24.76;41.11;100205.18;1724677;81;21082;-70
2021/04/30 10:44:28;;;;;;;6.47;3.13;;;;;;;25.05;40.38;100200.42;1717319;81;21577;-71
2021/04/30 10:47:21;;;;;;;7.20;2.50;;;;;;;25.39;40.04;100188.39;1720988;81;21212;-68
2021/04/30 10:50:14;;;;;;;5.23;2.93;;;;;;;25.63;39.32;100181.16;1717116;81;21733;-76
2021/04/30 10:52:42;;;;;;;6.20;2.90;;;;;;;25.88;38.59;100180.09;1722928;81;22159;-67
2021/04/30 10:55:16;;;;;;;6.70;2.13;;;;;;;25.76;37.95;100177.02;1723586;81;21046;-73
2021/04/30 10:57:57;;;;;;;5.13;2.50;;;;;;;25.53;38.75;100169.80;1723480;83;21106;-68
2021/04/30 11:00:29;;;;;;;3.60;2.10;;;;;;;25.70;38.68;100172.27;1716734;81;21133;-70
2021/04/30 11:03:19;;;;;;;4.23;2.30;;;;;;;25.92;38.46;100175.77;1711619;81;21114;-76
2021/04/30 11:06:02;;;;;;;4.83;2.20;;;;;;;26.16;37.29;100173.58;1723252;81;21200;-70
2021/04/30 11:08:58;;;;;;;5.60;2.33;;;;;;;26.44;37.14;100177.16;1723161;81;21225;-72
2021/04/30 11:11:40;;;;;;;5.57;2.33;;;;;;;26.54;35.72;100167.69;1721068;81;20956;-71
2021/04/30 11:14:26;;;;;;;5.83;2.50;;;;;;;26.34;35.76;100167.44;1720389;81;21656;-71
2021/04/30 11:16:55;;;;;;;4.07;2.60;;;;;;;26.14;36.10;100162.41;1717858;81;21138;-72
2021/04/30 11:19:26;;;;;;;5.40;2.70;;;;;;;26.14;36.78;100157.06;1719760;81;21277;-76
2021/04/30 11:22:12;;;;;;;5.43;2.30;;;;;;;26.18;36.52;100167.42;1720053;81;21167;-72
2021/04/30 11:24:46;;;;;;;4.33;2.40;;;;;;;26.02;36.94;100151.33;1720250;81;21634;-71
2021/04/30 11:27:25;;;;;;;5.57;2.57;;;;;;;26.02;36.75;100153.45;1722589;81;21673;-73
2021/04/30 11:30:18;;;;;;;5.80;2.70;;;;;;;25.89;37.14;100148.30;1720762;81;21500;-72
2021/04/30 11:32:52;;;;;;;5.23;2.70;;;;;;;25.70;37.28;100153.58;1719915;82;21383;-72
2021/04/30 11:35:21;;;;;;;6.30;3.13;;;;;;;25.44;37.45;100146.41;1719382;81;21545;-70
2021/04/30 11:37:51;;;;;;;4.73;2.00;;;;;;;25.09;38.14;100142.77;1707798;81;21145;-70
2021/04/30 11:40:22;;;;;;;5.40;3.40;;;;;;;24.79;38.95;100143.85;1698503;82;21189;-71
2021/04/30 11:42:55;;;;;;;5.67;2.80;;;;;;;24.58;39.25;100139.22;1718316;81;21201;-71
2021/04/30 11:45:23;;;;;;;5.93;2.70;;;;;;;24.43;40.05;100136.92;1694951;82;21594;-72
2021/04/30 11:47:51;;;;;;;4.13;2.33;;;;;;;24.44;40.10;100134.53;1718637;81;21244;-70
2021/04/30 11:50:22;;;;;;;4.17;2.37;;;;;;;24.47;40.52;100125.99;1701835;82;21083;-70
2021/04/30 11:52:49;;;;;;;5.80;2.83;;;;;;;24.48;40.10;100120.91;1724106;81;21074;-77
2021/04/30 11:55:20;;;;;;;6.87;2.80;;;;;;;24.53;40.11;100115.28;1720394;81;21513;-71
2021/04/30 11:57:56;;;;;;;9.05;2.85;;;;;;;24.78;40.75;100114.28;1702701;82;21185;-72
2021/04/30 12:00:29;;;;;;;6.20;3.43;;;;;;;25.22;40.86;100108.77;1737466;82;21660;-79
2021/04/30 12:03:04;;;;;;;4.60;3.03;;;;;;;25.82;39.21;100110.47;1735206;81;21913;-72
2021/04/30 12:05:32;;;;;;;7.53;3.27;;;;;;;26.11;37.55;100104.20;1740598;82;22226;-72
2021/04/30 12:08:01;;;;;;;5.03;2.90;;;;;;;26.19;36.63;100099.53;1723535;81;21186;-71
2021/04/30 12:10:33;;;;;;;6.47;2.90;;;;;;;26.28;36.64;100093.77;1736508;82;39308;-74
2021/04/30 12:13:01;;;;;;;6.45;2.72;;;;;;;26.40;36.61;100090.64;1726404;82;26758;-72
2021/04/30 12:15:38;;;;;;;4.75;2.80;;;;;;;26.47;36.32;100083.61;1735576;82;20983;-72
2021/04/30 12:18:06;;;;;;;6.37;2.93;;;;;;;26.44;36.21;100084.44;1727576;82;21604;-76
2021/04/30 12:20:36;;;;;;;8.73;3.20;;;;;;;26.27;36.54;100082.84;1740193;81;21405;-71
2021/04/30 12:23:14;;;;;;;8.00;3.77;;;;;;;26.20;36.54;100089.09;1721101;81;21385;-71
2021/04/30 12:25:50;;;;;;;6.43;2.97;;;;;;;25.99;36.29;100088.62;1702931;82;21572;-70
2021/04/30 12:28:30;;;;;;;4.57;2.80;;;;;;;25.73;36.67;100080.93;1706887;82;21166;-71
2021/04/30 12:31:10;;;;;;;6.73;3.23;;;;;;;25.69;37.13;100078.58;1720974;82;21123;-70
2021/04/30 12:33:48;;;;;;;6.77;3.83;;;;;;;25.96;37.23;100073.16;1699541;82;21121;-76
2021/04/30 12:36:30;;;;;;;6.77;4.10;;;;;;;26.28;35.96;100060.91;1721452;83;21289;-70
2021/04/30 12:39:04;;;;;;;4.83;3.67;;;;;;;26.43;35.81;100057.98;1734614;81;21147;-70
2021/04/30 12:41:41;;;;;;;8.10;3.70;;;;;;;26.38;35.92;100058.87;1738803;81;21942;-72
2021/04/30 12:44:11;;;;;;;10.40;3.70;;;;;;;26.35;36.08;100058.66;1736569;80;21639;-68
2021/04/30 12:46:41;;;;;;;6.15;3.60;;;;;;;26.39;35.85;100056.44;1739947;82;27233;-70
2021/04/30 12:49:17;;;;;;;7.90;3.60;;;;;;;26.37;36.03;100050.61;1724236;83;21339;-77
2021/04/30 12:51:54;;;;;;;5.60;3.10;;;;;;;26.35;36.10;100048.77;1719498;83;21209;-70
2021/04/30 12:54:31;;;;;;;5.10;3.33;;;;;;;26.48;36.02;100047.26;1716949;83;21118;-70
2021/04/30 12:59:57;;;;;;;6.93;3.73;;;;;;;26.45;36.02;100042.46;1824340;76;22457;-66
2021/04/30 13:02:28;;;;;;;8.97;4.27;;;;;;;26.22;35.35;100041.52;1788251;79;21014;-68
2021/04/30 13:05:00;;;;;;;7.10;4.00;;;;;;;25.99;36.29;100051.22;1789609;79;21360;-66
2021/04/30 13:07:30;;;;;;;7.10;4.47;;;;;;;25.70;36.69;100054.80;1806151;79;21096;-66
2021/04/30 13:09:59;;;;;;;5.67;4.07;;;;;;;25.38;37.47;100044.02;1780083;79;20967;-66
2021/04/30 13:12:35;;;;;;;7.43;4.60;;;;;;;25.08;37.77;100043.81;1780679;79;21096;-66
2021/04/30 13:15:05;;;;;;;8.07;4.83;;;;;;;24.72;38.30;100045.55;1784818;77;21026;-66
2021/04/30 13:17:33;;;;;;;8.53;5.37;;;;;;;24.35;39.68;100042.91;1790373;77;21197;-66
2021/04/30 13:20:27;;;;;;;7.90;5.03;;;;;;;24.06;40.49;100038.11;1808057;77;21554;-66
2021/04/30 13:23:07;;;;;;;13.00;7.17;;;;;;;23.84;41.74;100033.20;1810992;77;21082;-67
2021/04/30 13:25:39;;;;;;;8.03;4.80;;;;;;;23.68;42.81;100028.52;1789612;79;21211;-66
2021/04/30 13:28:19;;;;;;;12.20;5.95;;;;;;;23.50;42.85;100026.70;1794229;79;21280;-65
2021/04/30 13:30:53;;;;;;;6.33;4.30;;;;;;;23.35;44.05;100026.78;1790010;77;21246;-65
2021/04/30 13:33:34;;;;;;;7.83;4.53;;;;;;;23.27;44.29;100021.49;1721890;81;21147;-66
2021/04/30 13:36:08;;;;;;;6.43;4.30;;;;;;;23.31;44.26;100013.23;1743865;80;21545;-66
2021/04/30 13:38:38;;;;;;;9.73;4.17;;;;;;;23.45;43.96;100011.28;1747188;80;21214;-67
2021/04/30 13:41:14;;;;;;;8.27;5.50;;;;;;;23.64;44.07;100004.28;1753763;79;21144;-65
2021/04/30 13:43:42;;;;;;;6.57;4.60;;;;;;;23.83;43.29;100007.12;1776355;79;21275;-66
2021/04/30 13:46:17;;;;;;;8.03;4.63;;;;;;;23.92;43.49;100005.98;1750007;79;21668;-67
2021/04/30 13:48:46;;;;;;;7.10;4.77;;;;;;;23.99;42.80;100007.26;1746235;80;21025;-66
2021/04/30 13:51:16;;;;;;;19.67;6.60;;;;;;;24.02;42.72;100004.05;1767188;80;21055;-67
2021/04/30 13:53:44;;;;;;;8.87;4.40;;;;;;;24.12;42.85;100003.16;1762964;80;21355;-67
2021/04/30 13:56:13;;;;;;;6.70;4.63;;;;;;;24.23;41.57;99996.66;1753427;80;21201;-65
2021/04/30 13:58:50;;;;;;;8.70;4.83;;;;;;;24.20;41.78;99993.23;1759322;78;21149;-67
2021/04/30 14:01:19;;;;;;;13.67;6.23;;;;;;;24.06;41.76;99993.63;1759136;79;20995;-66
2021/04/30 14:03:47;;;;;;;7.70;5.23;;;;;;;23.87;42.52;99996.72;1779841;78;22257;-66
2021/04/30 14:06:16;;;;;;;8.53;4.67;;;;;;;23.68;42.56;99991.25;1737133;81;21156;-67
2021/04/30 14:08:46;;;;;;;11.00;4.47;;;;;;;23.50;43.32;99993.45;1759068;80;21220;-66
2021/04/30 14:11:14;;;;;;;11.87;5.03;;;;;;;23.36;44.28;99992.45;1768832;78;21764;-66
2021/04/30 14:13:42;;;;;;;27.23;5.67;;;;;;;23.18;44.58;99989.88;1763738;78;21117;-69
2021/04/30 14:16:11;;;;;;;6.77;4.10;;;;;;;22.96;45.26;99990.78;1778841;78;21131;-68
2021/04/30 14:18:41;;;;;;;7.83;4.00;;;;;;;22.78;45.95;99984.95;1762433;79;21244;-68
2021/04/30 14:21:11;;;;;;;9.60;4.50;;;;;;;22.63;46.63;99986.86;1771331;79;21072;-64
2021/04/30 14:23:39;;;;;;;9.20;5.50;;;;;;;22.45;48.48;99986.88;1748901;79;21609;-66
2021/04/30 14:26:08;;;;;;;7.37;5.07;;;;;;;22.33;49.96;99988.49;1774973;80;21098;-66
2021/04/30 14:28:37;;;;;;;7.00;4.80;;;;;;;22.25;50.38;99987.17;1748871;81;21624;-67
2021/04/30 14:31:05;;;;;;;9.37;5.27;;;;;;;22.18;51.42;99987.17;1750072;81;22337;-67
2021/04/30 14:33:34;;;;;;;12.10;5.00;;;;;;;22.15;51.78;99981.86;1747828;80;21288;-66
2021/04/30 14:36:03;;;;;;;8.63;5.97;;;;;;;22.14;51.91;99979.48;1753845;81;21214;-68
2021/04/30 14:38:36;;;;;;;20.40;10.10;;;;;;;22.12;52.06;99983.68;1750660;81;21174;-66
2021/04/30 14:41:05;;;;;;;9.73;5.92;;;;;;;22.10;53.32;99987.15;1763890;79;21282;-67
2021/04/30 14:43:34;;;;;;;6.72;3.33;;;;;;;22.11;55.27;99977.58;1769484;80;21573;-67
2021/04/30 14:46:03;;;;;;;8.43;3.57;;;;;;;22.17;54.21;99979.75;1764188;80;22238;-73
2021/04/30 14:48:32;;;;;;;6.23;3.80;;;;;;;22.24;52.74;99979.48;1788765;78;21533;-66
2021/04/30 14:51:00;;;;;;;6.03;3.43;;;;;;;22.24;52.21;99978.16;1746972;80;21259;-68